sensor_id;sensor_type;location;lat;lon;timestamp;P1;durP1;ratioP1;P2;durP2;ratioP2
51224;SDS011;37298;42.688;23.312;2022-12-18T00:01:56;9.82;;;6.35;;
51224;SDS011;37298;42.688;23.312;2022-12-18T00:04:23;11.32;;;6.88;;
51224;SDS011;37298;42.688;23.312;2022-12-18T00:06:50;7.88;;;5.47;;
51224;SDS011;37298;42.688;23.312;2022-12-18T00:09:18;9.88;;;7.38;;
51224;SDS011;37298;42.688;23.312;2022-12-18T00:11:45;10.65;;;7.10;;
51224;SDS011;37298;42.688;23.312;2022-12-18T00:14:12;11.18;;;7.68;;
51224;SDS011;37298;42.688;23.312;2022-12-18T00:16:39;13.63;;;7.90;;
51224;SDS011;37298;42.688;23.312;2022-12-18T00:19:08;11.10;;;7.20;;
51224;SDS011;37298;42.688;23.312;2022-12-18T00:21:36;9.77;;;7.70;;
51224;SDS011;37298;42.688;23.312;2022-12-18T00:24:03;12.85;;;8.30;;
51224;SDS011;37298;42.688;23.312;2022-12-18T00:26:30;11.80;;;7.95;;
51224;SDS011;37298;42.688;23.312;2022-12-18T00:29:00;8.73;;;6.45;;
51224;SDS011;37298;42.688;23.312;2022-12-18T00:31:29;12.88;;;7.25;;
51224;SDS011;37298;42.688;23.312;2022-12-18T00:33:56;10.35;;;7.07;;
51224;SDS011;37298;42.688;23.312;2022-12-18T00:36:25;14.02;;;9.27;;
51224;SDS011;37298;42.688;23.312;2022-12-18T00:38:53;6.80;;;5.30;;
51224;SDS011;37298;42.688;23.312;2022-12-18T00:41:20;11.07;;;6.60;;
51224;SDS011;37298;42.688;23.312;2022-12-18T00:44:03;8.10;;;4.55;;
51224;SDS011;37298;42.688;23.312;2022-12-18T00:46:30;7.85;;;5.20;;
51224;SDS011;37298;42.688;23.312;2022-12-18T00:48:57;7.43;;;5.78;;
51224;SDS011;37298;42.688;23.312;2022-12-18T00:51:25;7.53;;;5.60;;
51224;SDS011;37298;42.688;23.312;2022-12-18T00:53:52;6.78;;;5.28;;
51224;SDS011;37298;42.688;23.312;2022-12-18T00:56:19;7.25;;;5.45;;
51224;SDS011;37298;42.688;23.312;2022-12-18T00:58:46;10.45;;;5.32;;
51224;SDS011;37298;42.688;23.312;2022-12-18T01:01:13;9.32;;;6.93;;
51224;SDS011;37298;42.688;23.312;2022-12-18T01:03:40;11.27;;;6.90;;
51224;SDS011;37298;42.688;23.312;2022-12-18T01:06:07;9.30;;;6.55;;
51224;SDS011;37298;42.688;23.312;2022-12-18T01:08:35;8.32;;;6.53;;
51224;SDS011;37298;42.688;23.312;2022-12-18T01:11:06;6.85;;;5.28;;
51224;SDS011;37298;42.688;23.312;2022-12-18T01:13:33;12.23;;;7.47;;
51224;SDS011;37298;42.688;23.312;2022-12-18T01:16:00;10.75;;;7.30;;
51224;SDS011;37298;42.688;23.312;2022-12-18T01:18:27;9.73;;;6.88;;
51224;SDS011;37298;42.688;23.312;2022-12-18T01:20:54;11.10;;;7.75;;
51224;SDS011;37298;42.688;23.312;2022-12-18T01:23:20;14.95;;;9.48;;
51224;SDS011;37298;42.688;23.312;2022-12-18T01:25:48;9.07;;;6.50;;
51224;SDS011;37298;42.688;23.312;2022-12-18T01:28:15;12.77;;;8.68;;
51224;SDS011;37298;42.688;23.312;2022-12-18T01:30:42;11.98;;;7.63;;
51224;SDS011;37298;42.688;23.312;2022-12-18T01:33:09;8.40;;;6.43;;
51224;SDS011;37298;42.688;23.312;2022-12-18T01:35:39;12.15;;;8.45;;
51224;SDS011;37298;42.688;23.312;2022-12-18T01:38:06;14.13;;;9.07;;
51224;SDS011;37298;42.688;23.312;2022-12-18T01:40:33;8.35;;;5.60;;
51224;SDS011;37298;42.688;23.312;2022-12-18T01:43:01;7.95;;;6.10;;
51224;SDS011;37298;42.688;23.312;2022-12-18T01:45:28;8.93;;;6.65;;
51224;SDS011;37298;42.688;23.312;2022-12-18T01:47:56;12.43;;;8.57;;
51224;SDS011;37298;42.688;23.312;2022-12-18T01:50:24;10.75;;;6.47;;
51224;SDS011;37298;42.688;23.312;2022-12-18T01:52:53;11.80;;;8.15;;
51224;SDS011;37298;42.688;23.312;2022-12-18T01:55:21;14.13;;;9.10;;
51224;SDS011;37298;42.688;23.312;2022-12-18T01:57:49;8.98;;;5.07;;
51224;SDS011;37298;42.688;23.312;2022-12-18T02:00:20;8.93;;;6.15;;
51224;SDS011;37298;42.688;23.312;2022-12-18T02:02:47;9.27;;;6.18;;
51224;SDS011;37298;42.688;23.312;2022-12-18T02:05:15;9.85;;;6.43;;
51224;SDS011;37298;42.688;23.312;2022-12-18T02:07:45;13.85;;;8.63;;
51224;SDS011;37298;42.688;23.312;2022-12-18T02:10:19;11.95;;;8.15;;
51224;SDS011;37298;42.688;23.312;2022-12-18T02:12:48;10.68;;;6.60;;
51224;SDS011;37298;42.688;23.312;2022-12-18T02:15:19;7.13;;;4.57;;
51224;SDS011;37298;42.688;23.312;2022-12-18T02:17:51;10.40;;;7.38;;
51224;SDS011;37298;42.688;23.312;2022-12-18T02:20:20;11.20;;;6.05;;
51224;SDS011;37298;42.688;23.312;2022-12-18T02:22:55;9.60;;;6.93;;
51224;SDS011;37298;42.688;23.312;2022-12-18T02:25:30;7.25;;;5.30;;
51224;SDS011;37298;42.688;23.312;2022-12-18T02:28:04;9.07;;;6.28;;
51224;SDS011;37298;42.688;23.312;2022-12-18T02:30:33;11.50;;;8.23;;
51224;SDS011;37298;42.688;23.312;2022-12-18T02:33:01;8.73;;;6.45;;
51224;SDS011;37298;42.688;23.312;2022-12-18T02:35:30;9.63;;;7.22;;
51224;SDS011;37298;42.688;23.312;2022-12-18T02:37:59;14.85;;;7.05;;
51224;SDS011;37298;42.688;23.312;2022-12-18T02:40:29;7.85;;;5.78;;
51224;SDS011;37298;42.688;23.312;2022-12-18T02:43:03;9.82;;;7.00;;
51224;SDS011;37298;42.688;23.312;2022-12-18T02:45:33;12.43;;;8.75;;
51224;SDS011;37298;42.688;23.312;2022-12-18T02:48:01;8.80;;;6.72;;
51224;SDS011;37298;42.688;23.312;2022-12-18T02:50:30;11.48;;;7.82;;
51224;SDS011;37298;42.688;23.312;2022-12-18T02:53:04;11.27;;;6.63;;
51224;SDS011;37298;42.688;23.312;2022-12-18T02:55:40;11.27;;;7.85;;
51224;SDS011;37298;42.688;23.312;2022-12-18T02:58:15;7.50;;;5.72;;
51224;SDS011;37298;42.688;23.312;2022-12-18T03:00:48;13.15;;;7.45;;
51224;SDS011;37298;42.688;23.312;2022-12-18T03:03:18;14.48;;;8.93;;
51224;SDS011;37298;42.688;23.312;2022-12-18T03:05:49;9.38;;;6.25;;
51224;SDS011;37298;42.688;23.312;2022-12-18T03:08:18;12.77;;;8.85;;
51224;SDS011;37298;42.688;23.312;2022-12-18T03:10:48;15.55;;;8.88;;
51224;SDS011;37298;42.688;23.312;2022-12-18T03:13:19;9.18;;;6.20;;
51224;SDS011;37298;42.688;23.312;2022-12-18T03:15:47;10.18;;;7.75;;
51224;SDS011;37298;42.688;23.312;2022-12-18T03:18:15;15.77;;;9.30;;
51224;SDS011;37298;42.688;23.312;2022-12-18T03:20:43;12.05;;;8.30;;
51224;SDS011;37298;42.688;23.312;2022-12-18T03:23:15;13.07;;;7.95;;
51224;SDS011;37298;42.688;23.312;2022-12-18T03:25:46;11.40;;;7.43;;
51224;SDS011;37298;42.688;23.312;2022-12-18T03:28:15;16.23;;;9.52;;
51224;SDS011;37298;42.688;23.312;2022-12-18T03:30:46;10.13;;;7.20;;
51224;SDS011;37298;42.688;23.312;2022-12-18T03:33:15;10.95;;;7.47;;
51224;SDS011;37298;42.688;23.312;2022-12-18T03:35:45;9.70;;;6.97;;
51224;SDS011;37298;42.688;23.312;2022-12-18T03:38:12;9.02;;;5.53;;
51224;SDS011;37298;42.688;23.312;2022-12-18T03:40:46;12.10;;;7.35;;
51224;SDS011;37298;42.688;23.312;2022-12-18T03:43:18;8.45;;;6.32;;
51224;SDS011;37298;42.688;23.312;2022-12-18T03:45:48;10.82;;;6.75;;
51224;SDS011;37298;42.688;23.312;2022-12-18T03:48:18;12.40;;;8.15;;
51224;SDS011;37298;42.688;23.312;2022-12-18T03:50:48;9.13;;;6.50;;
51224;SDS011;37298;42.688;23.312;2022-12-18T03:53:22;9.45;;;6.35;;
51224;SDS011;37298;42.688;23.312;2022-12-18T03:55:51;11.40;;;7.25;;
51224;SDS011;37298;42.688;23.312;2022-12-18T03:58:19;10.15;;;5.35;;
51224;SDS011;37298;42.688;23.312;2022-12-18T04:00:56;9.60;;;7.05;;
51224;SDS011;37298;42.688;23.312;2022-12-18T04:03:25;13.70;;;8.40;;
51224;SDS011;37298;42.688;23.312;2022-12-18T04:05:52;7.53;;;4.65;;
51224;SDS011;37298;42.688;23.312;2022-12-18T04:08:21;12.38;;;7.95;;
51224;SDS011;37298;42.688;23.312;2022-12-18T04:10:59;12.93;;;8.45;;
51224;SDS011;37298;42.688;23.312;2022-12-18T04:13:27;10.98;;;7.72;;
51224;SDS011;37298;42.688;23.312;2022-12-18T04:15:57;6.53;;;5.20;;
51224;SDS011;37298;42.688;23.312;2022-12-18T04:18:24;12.30;;;7.00;;
51224;SDS011;37298;42.688;23.312;2022-12-18T04:20:51;13.95;;;8.65;;
51224;SDS011;37298;42.688;23.312;2022-12-18T04:23:18;10.85;;;7.60;;
51224;SDS011;37298;42.688;23.312;2022-12-18T04:25:46;12.75;;;9.18;;
51224;SDS011;37298;42.688;23.312;2022-12-18T04:28:18;16.23;;;10.15;;
51224;SDS011;37298;42.688;23.312;2022-12-18T04:30:45;12.43;;;8.20;;
51224;SDS011;37298;42.688;23.312;2022-12-18T04:33:13;15.15;;;8.48;;
51224;SDS011;37298;42.688;23.312;2022-12-18T04:35:40;15.90;;;9.07;;
51224;SDS011;37298;42.688;23.312;2022-12-18T04:38:07;15.00;;;7.60;;
51224;SDS011;37298;42.688;23.312;2022-12-18T04:40:34;14.43;;;8.83;;
51224;SDS011;37298;42.688;23.312;2022-12-18T04:43:04;15.45;;;8.40;;
51224;SDS011;37298;42.688;23.312;2022-12-18T04:45:30;12.02;;;8.30;;
51224;SDS011;37298;42.688;23.312;2022-12-18T04:47:57;13.95;;;9.35;;
51224;SDS011;37298;42.688;23.312;2022-12-18T04:50:25;13.82;;;8.88;;
51224;SDS011;37298;42.688;23.312;2022-12-18T04:55:19;10.98;;;5.85;;
51224;SDS011;37298;42.688;23.312;2022-12-18T04:57:46;9.65;;;6.32;;
51224;SDS011;37298;42.688;23.312;2022-12-18T05:00:13;16.60;;;8.80;;
51224;SDS011;37298;42.688;23.312;2022-12-18T05:02:40;16.52;;;8.10;;
51224;SDS011;37298;42.688;23.312;2022-12-18T05:05:08;11.18;;;7.90;;
51224;SDS011;37298;42.688;23.312;2022-12-18T05:07:36;18.50;;;10.77;;
51224;SDS011;37298;42.688;23.312;2022-12-18T05:10:03;13.73;;;8.60;;
51224;SDS011;37298;42.688;23.312;2022-12-18T05:12:33;17.88;;;9.98;;
51224;SDS011;37298;42.688;23.312;2022-12-18T05:15:20;14.98;;;8.57;;
51224;SDS011;37298;42.688;23.312;2022-12-18T05:17:46;14.73;;;9.52;;
51224;SDS011;37298;42.688;23.312;2022-12-18T05:20:13;15.02;;;8.73;;
51224;SDS011;37298;42.688;23.312;2022-12-18T05:22:41;16.23;;;9.18;;
51224;SDS011;37298;42.688;23.312;2022-12-18T05:25:08;10.65;;;7.55;;
51224;SDS011;37298;42.688;23.312;2022-12-18T05:27:35;17.08;;;9.55;;
51224;SDS011;37298;42.688;23.312;2022-12-18T05:30:02;20.75;;;12.05;;
51224;SDS011;37298;42.688;23.312;2022-12-18T05:32:29;14.80;;;9.68;;
51224;SDS011;37298;42.688;23.312;2022-12-18T05:34:56;20.65;;;12.52;;
51224;SDS011;37298;42.688;23.312;2022-12-18T05:37:23;19.90;;;12.30;;
51224;SDS011;37298;42.688;23.312;2022-12-18T05:39:51;17.33;;;9.52;;
51224;SDS011;37298;42.688;23.312;2022-12-18T05:42:18;19.42;;;10.85;;
51224;SDS011;37298;42.688;23.312;2022-12-18T05:44:45;15.32;;;9.85;;
51224;SDS011;37298;42.688;23.312;2022-12-18T05:47:11;17.38;;;10.43;;
51224;SDS011;37298;42.688;23.312;2022-12-18T05:49:38;16.98;;;10.05;;
51224;SDS011;37298;42.688;23.312;2022-12-18T05:52:05;18.40;;;9.57;;
51224;SDS011;37298;42.688;23.312;2022-12-18T05:54:32;15.80;;;8.75;;
51224;SDS011;37298;42.688;23.312;2022-12-18T05:57:00;18.35;;;11.65;;
51224;SDS011;37298;42.688;23.312;2022-12-18T05:59:27;19.33;;;10.30;;
51224;SDS011;37298;42.688;23.312;2022-12-18T06:01:54;12.75;;;8.68;;
51224;SDS011;37298;42.688;23.312;2022-12-18T06:04:20;19.40;;;12.25;;
51224;SDS011;37298;42.688;23.312;2022-12-18T06:06:47;14.50;;;8.93;;
51224;SDS011;37298;42.688;23.312;2022-12-18T06:09:14;16.52;;;9.48;;
51224;SDS011;37298;42.688;23.312;2022-12-18T06:11:40;16.95;;;8.73;;
51224;SDS011;37298;42.688;23.312;2022-12-18T06:14:09;17.98;;;9.73;;
51224;SDS011;37298;42.688;23.312;2022-12-18T06:16:36;20.65;;;11.45;;
51224;SDS011;37298;42.688;23.312;2022-12-18T06:19:03;14.32;;;8.68;;
51224;SDS011;37298;42.688;23.312;2022-12-18T06:21:31;21.92;;;12.68;;
51224;SDS011;37298;42.688;23.312;2022-12-18T06:23:58;16.40;;;9.77;;
51224;SDS011;37298;42.688;23.312;2022-12-18T06:26:24;18.83;;;11.10;;
51224;SDS011;37298;42.688;23.312;2022-12-18T06:28:54;15.45;;;8.48;;
51224;SDS011;37298;42.688;23.312;2022-12-18T06:31:22;14.90;;;7.85;;
51224;SDS011;37298;42.688;23.312;2022-12-18T06:33:49;19.80;;;11.20;;
51224;SDS011;37298;42.688;23.312;2022-12-18T06:36:16;17.73;;;9.77;;
51224;SDS011;37298;42.688;23.312;2022-12-18T06:38:43;18.70;;;11.07;;
51224;SDS011;37298;42.688;23.312;2022-12-18T06:41:11;14.48;;;8.93;;
51224;SDS011;37298;42.688;23.312;2022-12-18T06:43:38;18.90;;;11.75;;
51224;SDS011;37298;42.688;23.312;2022-12-18T06:46:05;14.57;;;7.85;;
51224;SDS011;37298;42.688;23.312;2022-12-18T06:48:36;27.13;;;13.93;;
51224;SDS011;37298;42.688;23.312;2022-12-18T06:51:03;20.35;;;13.55;;
51224;SDS011;37298;42.688;23.312;2022-12-18T06:53:30;13.00;;;7.80;;
51224;SDS011;37298;42.688;23.312;2022-12-18T06:55:59;13.52;;;8.90;;
51224;SDS011;37298;42.688;23.312;2022-12-18T06:58:26;13.75;;;8.13;;
51224;SDS011;37298;42.688;23.312;2022-12-18T07:00:53;22.40;;;12.75;;
51224;SDS011;37298;42.688;23.312;2022-12-18T07:03:20;12.48;;;8.40;;
51224;SDS011;37298;42.688;23.312;2022-12-18T07:05:48;16.90;;;10.35;;
51224;SDS011;37298;42.688;23.312;2022-12-18T07:08:15;17.05;;;10.10;;
51224;SDS011;37298;42.688;23.312;2022-12-18T07:10:42;20.10;;;12.43;;
51224;SDS011;37298;42.688;23.312;2022-12-18T07:13:09;16.08;;;9.75;;
51224;SDS011;37298;42.688;23.312;2022-12-18T07:15:35;21.73;;;11.05;;
51224;SDS011;37298;42.688;23.312;2022-12-18T07:18:02;22.58;;;12.73;;
51224;SDS011;37298;42.688;23.312;2022-12-18T07:20:29;14.48;;;8.90;;
51224;SDS011;37298;42.688;23.312;2022-12-18T07:22:58;18.25;;;9.60;;
51224;SDS011;37298;42.688;23.312;2022-12-18T07:25:25;20.63;;;13.43;;
51224;SDS011;37298;42.688;23.312;2022-12-18T07:27:52;18.83;;;11.80;;
51224;SDS011;37298;42.688;23.312;2022-12-18T07:30:19;14.48;;;9.63;;
51224;SDS011;37298;42.688;23.312;2022-12-18T07:32:46;16.65;;;9.68;;
51224;SDS011;37298;42.688;23.312;2022-12-18T07:35:13;19.17;;;11.07;;
51224;SDS011;37298;42.688;23.312;2022-12-18T07:37:39;24.33;;;13.32;;
51224;SDS011;37298;42.688;23.312;2022-12-18T07:40:09;24.15;;;14.32;;
51224;SDS011;37298;42.688;23.312;2022-12-18T07:42:35;22.92;;;14.05;;
51224;SDS011;37298;42.688;23.312;2022-12-18T07:45:03;22.83;;;12.05;;
51224;SDS011;37298;42.688;23.312;2022-12-18T07:47:30;25.80;;;14.43;;
51224;SDS011;37298;42.688;23.312;2022-12-18T07:49:57;32.95;;;16.45;;
51224;SDS011;37298;42.688;23.312;2022-12-18T07:52:23;19.00;;;11.05;;
51224;SDS011;37298;42.688;23.312;2022-12-18T07:54:51;26.77;;;14.93;;
51224;SDS011;37298;42.688;23.312;2022-12-18T07:57:19;29.42;;;16.17;;
51224;SDS011;37298;42.688;23.312;2022-12-18T07:59:46;24.35;;;14.15;;
51224;SDS011;37298;42.688;23.312;2022-12-18T08:02:12;26.83;;;16.30;;
51224;SDS011;37298;42.688;23.312;2022-12-18T08:04:40;19.42;;;10.32;;
51224;SDS011;37298;42.688;23.312;2022-12-18T08:07:06;28.45;;;15.93;;
51224;SDS011;37298;42.688;23.312;2022-12-18T08:09:33;24.63;;;14.68;;
51224;SDS011;37298;42.688;23.312;2022-12-18T08:12:00;26.45;;;14.20;;
51224;SDS011;37298;42.688;23.312;2022-12-18T08:14:31;29.38;;;14.68;;
51224;SDS011;37298;42.688;23.312;2022-12-18T08:17:02;28.52;;;16.50;;
51224;SDS011;37298;42.688;23.312;2022-12-18T08:19:32;28.30;;;15.77;;
51224;SDS011;37298;42.688;23.312;2022-12-18T08:22:09;30.10;;;15.70;;
51224;SDS011;37298;42.688;23.312;2022-12-18T08:24:36;26.33;;;13.80;;
51224;SDS011;37298;42.688;23.312;2022-12-18T08:27:03;23.15;;;12.95;;
51224;SDS011;37298;42.688;23.312;2022-12-18T08:29:29;25.45;;;15.07;;
51224;SDS011;37298;42.688;23.312;2022-12-18T08:31:59;31.38;;;17.17;;
51224;SDS011;37298;42.688;23.312;2022-12-18T08:34:25;26.80;;;15.80;;
51224;SDS011;37298;42.688;23.312;2022-12-18T08:36:52;21.42;;;13.75;;
51224;SDS011;37298;42.688;23.312;2022-12-18T08:39:19;20.23;;;12.18;;
51224;SDS011;37298;42.688;23.312;2022-12-18T08:41:46;25.05;;;13.32;;
51224;SDS011;37298;42.688;23.312;2022-12-18T08:44:32;18.58;;;8.02;;
51224;SDS011;37298;42.688;23.312;2022-12-18T08:47:06;31.25;;;13.95;;
51224;SDS011;37298;42.688;23.312;2022-12-18T08:49:32;23.80;;;13.35;;
51224;SDS011;37298;42.688;23.312;2022-12-18T08:51:59;27.00;;;14.73;;
51224;SDS011;37298;42.688;23.312;2022-12-18T08:54:27;25.25;;;14.70;;
51224;SDS011;37298;42.688;23.312;2022-12-18T08:56:54;18.17;;;9.38;;
51224;SDS011;37298;42.688;23.312;2022-12-18T08:59:20;24.50;;;11.80;;
51224;SDS011;37298;42.688;23.312;2022-12-18T09:01:49;20.83;;;11.95;;
51224;SDS011;37298;42.688;23.312;2022-12-18T09:04:17;15.52;;;8.30;;
51224;SDS011;37298;42.688;23.312;2022-12-18T09:06:44;17.83;;;8.80;;
51224;SDS011;37298;42.688;23.312;2022-12-18T09:09:10;21.88;;;11.88;;
51224;SDS011;37298;42.688;23.312;2022-12-18T09:11:37;29.00;;;16.48;;
51224;SDS011;37298;42.688;23.312;2022-12-18T09:14:04;25.30;;;13.57;;
51224;SDS011;37298;42.688;23.312;2022-12-18T09:16:31;19.95;;;13.27;;
51224;SDS011;37298;42.688;23.312;2022-12-18T09:19:00;13.63;;;7.40;;
51224;SDS011;37298;42.688;23.312;2022-12-18T09:21:30;17.75;;;10.20;;
51224;SDS011;37298;42.688;23.312;2022-12-18T09:23:57;17.05;;;9.85;;
51224;SDS011;37298;42.688;23.312;2022-12-18T09:26:24;20.48;;;12.65;;
51224;SDS011;37298;42.688;23.312;2022-12-18T09:28:52;23.63;;;12.63;;
51224;SDS011;37298;42.688;23.312;2022-12-18T09:31:20;24.60;;;12.73;;
51224;SDS011;37298;42.688;23.312;2022-12-18T09:33:48;19.23;;;10.85;;
51224;SDS011;37298;42.688;23.312;2022-12-18T09:36:15;22.15;;;13.40;;
51224;SDS011;37298;42.688;23.312;2022-12-18T09:38:44;23.95;;;14.35;;
51224;SDS011;37298;42.688;23.312;2022-12-18T09:41:15;18.35;;;9.85;;
51224;SDS011;37298;42.688;23.312;2022-12-18T09:43:45;20.92;;;12.90;;
51224;SDS011;37298;42.688;23.312;2022-12-18T09:46:15;22.90;;;12.70;;
51224;SDS011;37298;42.688;23.312;2022-12-18T09:48:44;24.70;;;13.52;;
51224;SDS011;37298;42.688;23.312;2022-12-18T09:51:13;17.38;;;9.68;;
51224;SDS011;37298;42.688;23.312;2022-12-18T09:53:46;20.42;;;11.60;;
51224;SDS011;37298;42.688;23.312;2022-12-18T09:56:16;30.95;;;16.35;;
51224;SDS011;37298;42.688;23.312;2022-12-18T09:58:44;15.45;;;8.48;;
51224;SDS011;37298;42.688;23.312;2022-12-18T10:01:14;21.63;;;10.57;;
51224;SDS011;37298;42.688;23.312;2022-12-18T10:03:44;21.00;;;10.38;;
51224;SDS011;37298;42.688;23.312;2022-12-18T10:06:12;25.00;;;11.18;;
51224;SDS011;37298;42.688;23.312;2022-12-18T10:08:41;20.33;;;11.07;;
51224;SDS011;37298;42.688;23.312;2022-12-18T10:11:19;22.27;;;10.60;;
51224;SDS011;37298;42.688;23.312;2022-12-18T10:13:49;15.75;;;7.38;;
51224;SDS011;37298;42.688;23.312;2022-12-18T10:16:19;24.83;;;13.63;;
51224;SDS011;37298;42.688;23.312;2022-12-18T10:18:56;26.67;;;14.30;;
51224;SDS011;37298;42.688;23.312;2022-12-18T10:21:32;24.17;;;13.55;;
51224;SDS011;37298;42.688;23.312;2022-12-18T10:24:01;21.55;;;12.05;;
51224;SDS011;37298;42.688;23.312;2022-12-18T10:26:31;20.42;;;12.77;;
51224;SDS011;37298;42.688;23.312;2022-12-18T10:28:58;24.98;;;13.52;;
51224;SDS011;37298;42.688;23.312;2022-12-18T10:31:25;19.77;;;11.20;;
51224;SDS011;37298;42.688;23.312;2022-12-18T10:33:53;25.00;;;13.65;;
51224;SDS011;37298;42.688;23.312;2022-12-18T10:36:20;24.33;;;15.20;;
51224;SDS011;37298;42.688;23.312;2022-12-18T10:38:47;20.30;;;12.85;;
51224;SDS011;37298;42.688;23.312;2022-12-18T10:41:24;24.38;;;13.70;;
51224;SDS011;37298;42.688;23.312;2022-12-18T10:44:11;21.70;;;12.73;;
51224;SDS011;37298;42.688;23.312;2022-12-18T10:46:38;22.63;;;10.68;;
51224;SDS011;37298;42.688;23.312;2022-12-18T10:49:17;30.58;;;16.45;;
51224;SDS011;37298;42.688;23.312;2022-12-18T10:51:45;18.27;;;10.75;;
51224;SDS011;37298;42.688;23.312;2022-12-18T10:54:13;19.55;;;10.18;;
51224;SDS011;37298;42.688;23.312;2022-12-18T10:56:41;25.08;;;12.43;;
51224;SDS011;37298;42.688;23.312;2022-12-18T10:59:10;19.98;;;10.45;;
51224;SDS011;37298;42.688;23.312;2022-12-18T11:01:47;15.48;;;10.00;;
51224;SDS011;37298;42.688;23.312;2022-12-18T11:04:16;17.83;;;9.90;;
51224;SDS011;37298;42.688;23.312;2022-12-18T11:06:52;23.60;;;11.70;;
51224;SDS011;37298;42.688;23.312;2022-12-18T11:09:20;21.02;;;10.77;;
51224;SDS011;37298;42.688;23.312;2022-12-18T11:11:48;20.55;;;11.18;;
51224;SDS011;37298;42.688;23.312;2022-12-18T11:14:18;23.30;;;12.05;;
51224;SDS011;37298;42.688;23.312;2022-12-18T11:16:46;24.98;;;12.07;;
51224;SDS011;37298;42.688;23.312;2022-12-18T11:19:20;26.20;;;14.20;;
51224;SDS011;37298;42.688;23.312;2022-12-18T11:21:49;22.33;;;11.93;;
51224;SDS011;37298;42.688;23.312;2022-12-18T11:24:21;20.95;;;13.45;;
51224;SDS011;37298;42.688;23.312;2022-12-18T11:26:48;27.42;;;13.07;;
51224;SDS011;37298;42.688;23.312;2022-12-18T11:29:17;28.25;;;15.02;;
51224;SDS011;37298;42.688;23.312;2022-12-18T11:31:44;27.85;;;16.50;;
51224;SDS011;37298;42.688;23.312;2022-12-18T11:34:12;22.45;;;13.02;;
51224;SDS011;37298;42.688;23.312;2022-12-18T11:36:41;17.42;;;11.60;;
51224;SDS011;37298;42.688;23.312;2022-12-18T11:39:12;26.17;;;14.70;;
51224;SDS011;37298;42.688;23.312;2022-12-18T11:41:42;24.80;;;13.73;;
51224;SDS011;37298;42.688;23.312;2022-12-18T11:44:34;14.85;;;9.40;;
51224;SDS011;37298;42.688;23.312;2022-12-18T11:47:03;15.35;;;8.90;;
51224;SDS011;37298;42.688;23.312;2022-12-18T11:49:35;13.50;;;9.45;;
51224;SDS011;37298;42.688;23.312;2022-12-18T11:52:07;26.63;;;12.70;;
51224;SDS011;37298;42.688;23.312;2022-12-18T11:54:36;25.63;;;13.65;;
51224;SDS011;37298;42.688;23.312;2022-12-18T11:57:04;24.45;;;13.60;;
51224;SDS011;37298;42.688;23.312;2022-12-18T11:59:36;22.95;;;12.88;;
51224;SDS011;37298;42.688;23.312;2022-12-18T12:02:17;22.05;;;13.70;;
51224;SDS011;37298;42.688;23.312;2022-12-18T12:04:56;19.83;;;10.45;;
51224;SDS011;37298;42.688;23.312;2022-12-18T12:07:31;23.00;;;13.43;;
51224;SDS011;37298;42.688;23.312;2022-12-18T12:10:05;28.33;;;12.98;;
51224;SDS011;37298;42.688;23.312;2022-12-18T12:12:37;20.10;;;11.48;;
51224;SDS011;37298;42.688;23.312;2022-12-18T12:15:16;25.70;;;14.35;;
51224;SDS011;37298;42.688;23.312;2022-12-18T12:17:45;27.15;;;11.75;;
51224;SDS011;37298;42.688;23.312;2022-12-18T12:20:19;22.77;;;12.65;;
51224;SDS011;37298;42.688;23.312;2022-12-18T12:22:48;25.67;;;13.63;;
51224;SDS011;37298;42.688;23.312;2022-12-18T12:25:20;20.80;;;13.15;;
51224;SDS011;37298;42.688;23.312;2022-12-18T12:27:50;23.00;;;13.32;;
51224;SDS011;37298;42.688;23.312;2022-12-18T12:30:21;16.58;;;9.95;;
51224;SDS011;37298;42.688;23.312;2022-12-18T12:32:58;21.92;;;13.10;;
51224;SDS011;37298;42.688;23.312;2022-12-18T12:35:31;27.47;;;14.63;;
51224;SDS011;37298;42.688;23.312;2022-12-18T12:38:08;28.05;;;14.73;;
51224;SDS011;37298;42.688;23.312;2022-12-18T12:40:41;25.17;;;14.80;;
51224;SDS011;37298;42.688;23.312;2022-12-18T12:43:16;25.13;;;13.88;;
51224;SDS011;37298;42.688;23.312;2022-12-18T12:45:47;18.88;;;12.13;;
51224;SDS011;37298;42.688;23.312;2022-12-18T12:48:17;25.83;;;14.27;;
51224;SDS011;37298;42.688;23.312;2022-12-18T12:50:45;26.92;;;13.48;;
51224;SDS011;37298;42.688;23.312;2022-12-18T12:53:33;20.80;;;11.38;;
51224;SDS011;37298;42.688;23.312;2022-12-18T12:56:00;28.23;;;15.13;;
51224;SDS011;37298;42.688;23.312;2022-12-18T12:58:29;24.45;;;12.77;;
51224;SDS011;37298;42.688;23.312;2022-12-18T13:01:05;18.13;;;10.18;;
51224;SDS011;37298;42.688;23.312;2022-12-18T13:03:37;18.75;;;11.73;;
51224;SDS011;37298;42.688;23.312;2022-12-18T13:06:08;19.80;;;9.43;;
51224;SDS011;37298;42.688;23.312;2022-12-18T13:08:51;14.98;;;8.95;;
51224;SDS011;37298;42.688;23.312;2022-12-18T13:11:28;20.30;;;11.60;;
51224;SDS011;37298;42.688;23.312;2022-12-18T13:14:19;31.13;;;17.85;;
51224;SDS011;37298;42.688;23.312;2022-12-18T13:16:48;24.38;;;12.40;;
51224;SDS011;37298;42.688;23.312;2022-12-18T13:19:20;18.13;;;10.35;;
51224;SDS011;37298;42.688;23.312;2022-12-18T13:21:51;23.65;;;13.20;;
51224;SDS011;37298;42.688;23.312;2022-12-18T13:24:23;21.00;;;12.05;;
51224;SDS011;37298;42.688;23.312;2022-12-18T13:26:51;25.63;;;13.27;;
51224;SDS011;37298;42.688;23.312;2022-12-18T13:32:00;24.00;;;14.55;;
51224;SDS011;37298;42.688;23.312;2022-12-18T13:34:28;29.45;;;18.23;;
51224;SDS011;37298;42.688;23.312;2022-12-18T13:36:56;26.02;;;14.68;;
51224;SDS011;37298;42.688;23.312;2022-12-18T13:39:31;25.95;;;15.98;;
51224;SDS011;37298;42.688;23.312;2022-12-18T13:44:58;23.95;;;12.73;;
51224;SDS011;37298;42.688;23.312;2022-12-18T13:47:32;24.77;;;13.10;;
51224;SDS011;37298;42.688;23.312;2022-12-18T13:50:00;19.80;;;11.50;;
51224;SDS011;37298;42.688;23.312;2022-12-18T13:52:28;29.75;;;15.02;;
51224;SDS011;37298;42.688;23.312;2022-12-18T13:55:00;26.40;;;14.40;;
51224;SDS011;37298;42.688;23.312;2022-12-18T13:57:29;25.45;;;14.30;;
51224;SDS011;37298;42.688;23.312;2022-12-18T13:59:56;24.40;;;14.85;;
51224;SDS011;37298;42.688;23.312;2022-12-18T14:02:25;27.40;;;14.75;;
51224;SDS011;37298;42.688;23.312;2022-12-18T14:04:54;29.05;;;14.95;;
51224;SDS011;37298;42.688;23.312;2022-12-18T14:07:21;21.10;;;10.88;;
51224;SDS011;37298;42.688;23.312;2022-12-18T14:09:49;21.53;;;11.73;;
51224;SDS011;37298;42.688;23.312;2022-12-18T14:12:18;27.50;;;13.43;;
51224;SDS011;37298;42.688;23.312;2022-12-18T14:15:05;24.27;;;11.35;;
51224;SDS011;37298;42.688;23.312;2022-12-18T14:17:32;21.77;;;12.95;;
51224;SDS011;37298;42.688;23.312;2022-12-18T14:20:01;25.17;;;13.50;;
51224;SDS011;37298;42.688;23.312;2022-12-18T14:22:29;23.98;;;13.10;;
51224;SDS011;37298;42.688;23.312;2022-12-18T14:25:14;21.02;;;11.38;;
51224;SDS011;37298;42.688;23.312;2022-12-18T14:27:42;20.42;;;12.43;;
51224;SDS011;37298;42.688;23.312;2022-12-18T14:30:23;20.30;;;11.80;;
51224;SDS011;37298;42.688;23.312;2022-12-18T14:32:59;24.83;;;13.95;;
51224;SDS011;37298;42.688;23.312;2022-12-18T14:35:27;24.90;;;13.07;;
51224;SDS011;37298;42.688;23.312;2022-12-18T14:37:56;21.70;;;12.10;;